sensor_id;sensor_type;location;lat;lon;timestamp;P1;durP1;ratioP1;P2;durP2;ratioP2
46084;SDS011;31823;47.032;8.310;2023-12-04T00:01:16;16.90;;;7.75;;
46084;SDS011;31823;47.032;8.310;2023-12-04T00:03:42;18.15;;;6.85;;
46084;SDS011;31823;47.032;8.310;2023-12-04T00:06:09;18.60;;;7.15;;
46084;SDS011;31823;47.032;8.310;2023-12-04T00:08:36;16.27;;;6.68;;
46084;SDS011;31823;47.032;8.310;2023-12-04T00:11:02;17.65;;;7.03;;
46084;SDS011;31823;47.032;8.310;2023-12-04T00:13:29;15.35;;;6.68;;
46084;SDS011;31823;47.032;8.310;2023-12-04T00:15:54;21.48;;;7.18;;
46084;SDS011;31823;47.032;8.310;2023-12-04T00:18:20;19.83;;;7.47;;
46084;SDS011;31823;47.032;8.310;2023-12-04T00:20:45;19.85;;;8.07;;
46084;SDS011;31823;47.032;8.310;2023-12-04T00:23:11;18.10;;;7.57;;
46084;SDS011;31823;47.032;8.310;2023-12-04T00:25:36;20.58;;;7.03;;
46084;SDS011;31823;47.032;8.310;2023-12-04T00:28:02;21.02;;;6.38;;
46084;SDS011;31823;47.032;8.310;2023-12-04T00:30:28;14.43;;;6.10;;
46084;SDS011;31823;47.032;8.310;2023-12-04T00:32:54;19.13;;;6.63;;
46084;SDS011;31823;47.032;8.310;2023-12-04T00:35:19;14.48;;;6.88;;
46084;SDS011;31823;47.032;8.310;2023-12-04T00:37:45;14.52;;;6.10;;
46084;SDS011;31823;47.032;8.310;2023-12-04T00:40:10;16.23;;;7.30;;
46084;SDS011;31823;47.032;8.310;2023-12-04T00:42:36;17.38;;;6.78;;
46084;SDS011;31823;47.032;8.310;2023-12-04T00:45:02;19.95;;;6.55;;
46084;SDS011;31823;47.032;8.310;2023-12-04T00:47:28;15.15;;;6.57;;
46084;SDS011;31823;47.032;8.310;2023-12-04T00:49:54;12.45;;;6.35;;
46084;SDS011;31823;47.032;8.310;2023-12-04T00:52:19;19.55;;;6.15;;
46084;SDS011;31823;47.032;8.310;2023-12-04T00:54:45;17.08;;;7.30;;
46084;SDS011;31823;47.032;8.310;2023-12-04T00:57:10;16.08;;;5.97;;
46084;SDS011;31823;47.032;8.310;2023-12-04T00:59:36;21.30;;;7.22;;
46084;SDS011;31823;47.032;8.310;2023-12-04T01:02:01;18.02;;;7.25;;
46084;SDS011;31823;47.032;8.310;2023-12-04T01:04:27;16.25;;;6.03;;
46084;SDS011;31823;47.032;8.310;2023-12-04T01:06:53;14.27;;;5.50;;
46084;SDS011;31823;47.032;8.310;2023-12-04T01:09:18;15.10;;;7.35;;
46084;SDS011;31823;47.032;8.310;2023-12-04T01:11:49;13.02;;;5.97;;
46084;SDS011;31823;47.032;8.310;2023-12-04T01:14:18;16.65;;;5.63;;
46084;SDS011;31823;47.032;8.310;2023-12-04T01:16:43;16.83;;;7.97;;
46084;SDS011;31823;47.032;8.310;2023-12-04T01:19:09;20.40;;;6.68;;
46084;SDS011;31823;47.032;8.310;2023-12-04T01:21:35;19.17;;;7.72;;
46084;SDS011;31823;47.032;8.310;2023-12-04T01:24:00;26.65;;;8.90;;
46084;SDS011;31823;47.032;8.310;2023-12-04T01:26:26;22.00;;;8.93;;
46084;SDS011;31823;47.032;8.310;2023-12-04T01:28:51;23.27;;;9.10;;
46084;SDS011;31823;47.032;8.310;2023-12-04T01:31:17;20.98;;;7.78;;
46084;SDS011;31823;47.032;8.310;2023-12-04T01:33:43;19.50;;;7.82;;
46084;SDS011;31823;47.032;8.310;2023-12-04T01:36:08;17.42;;;6.53;;
46084;SDS011;31823;47.032;8.310;2023-12-04T01:38:34;19.52;;;8.02;;
46084;SDS011;31823;47.032;8.310;2023-12-04T01:41:00;17.60;;;6.93;;
46084;SDS011;31823;47.032;8.310;2023-12-04T01:43:26;19.50;;;6.40;;
46084;SDS011;31823;47.032;8.310;2023-12-04T01:45:53;16.67;;;6.15;;
46084;SDS011;31823;47.032;8.310;2023-12-04T01:48:19;11.63;;;4.97;;
46084;SDS011;31823;47.032;8.310;2023-12-04T01:50:45;14.73;;;4.75;;
46084;SDS011;31823;47.032;8.310;2023-12-04T01:53:11;13.77;;;5.47;;
46084;SDS011;31823;47.032;8.310;2023-12-04T01:55:37;18.13;;;6.15;;
46084;SDS011;31823;47.032;8.310;2023-12-04T01:58:03;14.60;;;6.32;;
46084;SDS011;31823;47.032;8.310;2023-12-04T02:00:30;17.63;;;5.85;;
46084;SDS011;31823;47.032;8.310;2023-12-04T02:02:57;13.57;;;5.80;;
46084;SDS011;31823;47.032;8.310;2023-12-04T02:05:24;12.18;;;5.40;;
46084;SDS011;31823;47.032;8.310;2023-12-04T02:07:52;11.82;;;4.95;;
46084;SDS011;31823;47.032;8.310;2023-12-04T02:10:18;11.90;;;4.70;;
46084;SDS011;31823;47.032;8.310;2023-12-04T02:12:43;13.88;;;4.10;;
46084;SDS011;31823;47.032;8.310;2023-12-04T02:15:09;12.45;;;5.22;;
46084;SDS011;31823;47.032;8.310;2023-12-04T02:17:35;11.68;;;4.40;;
46084;SDS011;31823;47.032;8.310;2023-12-04T02:20:02;13.63;;;4.57;;
46084;SDS011;31823;47.032;8.310;2023-12-04T02:22:30;10.95;;;4.88;;
46084;SDS011;31823;47.032;8.310;2023-12-04T02:24:55;14.70;;;4.95;;
46084;SDS011;31823;47.032;8.310;2023-12-04T02:27:35;14.82;;;5.63;;
46084;SDS011;31823;47.032;8.310;2023-12-04T02:30:05;16.40;;;5.55;;
46084;SDS011;31823;47.032;8.310;2023-12-04T02:32:33;15.10;;;5.53;;
46084;SDS011;31823;47.032;8.310;2023-12-04T02:35:03;18.38;;;6.32;;
46084;SDS011;31823;47.032;8.310;2023-12-04T02:37:31;10.10;;;5.20;;
46084;SDS011;31823;47.032;8.310;2023-12-04T02:39:57;14.15;;;6.32;;
46084;SDS011;31823;47.032;8.310;2023-12-04T02:42:23;15.40;;;5.60;;
46084;SDS011;31823;47.032;8.310;2023-12-04T02:44:52;13.07;;;5.05;;
46084;SDS011;31823;47.032;8.310;2023-12-04T02:47:18;15.98;;;5.95;;
46084;SDS011;31823;47.032;8.310;2023-12-04T02:49:44;11.35;;;4.95;;
46084;SDS011;31823;47.032;8.310;2023-12-04T02:52:09;20.95;;;6.43;;
46084;SDS011;31823;47.032;8.310;2023-12-04T02:54:35;27.25;;;7.70;;
46084;SDS011;31823;47.032;8.310;2023-12-04T02:57:01;23.27;;;8.63;;
46084;SDS011;31823;47.032;8.310;2023-12-04T02:59:27;25.13;;;7.85;;
46084;SDS011;31823;47.032;8.310;2023-12-04T03:01:52;20.15;;;8.10;;
46084;SDS011;31823;47.032;8.310;2023-12-04T03:04:21;25.88;;;8.95;;
46084;SDS011;31823;47.032;8.310;2023-12-04T03:06:47;28.98;;;9.00;;
46084;SDS011;31823;47.032;8.310;2023-12-04T03:09:12;24.95;;;8.65;;
46084;SDS011;31823;47.032;8.310;2023-12-04T03:11:41;30.30;;;10.90;;
46084;SDS011;31823;47.032;8.310;2023-12-04T03:14:07;37.63;;;8.30;;
46084;SDS011;31823;47.032;8.310;2023-12-04T03:16:33;31.98;;;10.13;;
46084;SDS011;31823;47.032;8.310;2023-12-04T03:18:59;24.63;;;9.30;;
46084;SDS011;31823;47.032;8.310;2023-12-04T03:21:25;26.80;;;9.55;;
46084;SDS011;31823;47.032;8.310;2023-12-04T03:23:50;23.63;;;9.05;;
46084;SDS011;31823;47.032;8.310;2023-12-04T03:26:16;31.45;;;11.23;;
46084;SDS011;31823;47.032;8.310;2023-12-04T03:28:42;26.92;;;9.00;;
46084;SDS011;31823;47.032;8.310;2023-12-04T03:31:08;27.90;;;10.90;;
46084;SDS011;31823;47.032;8.310;2023-12-04T03:33:33;26.63;;;9.68;;
46084;SDS011;31823;47.032;8.310;2023-12-04T03:35:59;28.02;;;9.65;;
46084;SDS011;31823;47.032;8.310;2023-12-04T03:38:25;28.33;;;10.50;;
46084;SDS011;31823;47.032;8.310;2023-12-04T03:40:50;28.63;;;9.35;;
46084;SDS011;31823;47.032;8.310;2023-12-04T03:43:16;32.88;;;9.77;;
46084;SDS011;31823;47.032;8.310;2023-12-04T03:45:42;23.42;;;8.82;;
46084;SDS011;31823;47.032;8.310;2023-12-04T03:48:08;25.52;;;9.43;;
46084;SDS011;31823;47.032;8.310;2023-12-04T03:50:33;26.15;;;9.25;;
46084;SDS011;31823;47.032;8.310;2023-12-04T03:52:59;30.42;;;9.68;;
46084;SDS011;31823;47.032;8.310;2023-12-04T03:55:24;22.48;;;9.38;;
46084;SDS011;31823;47.032;8.310;2023-12-04T03:57:50;22.30;;;8.55;;
46084;SDS011;31823;47.032;8.310;2023-12-04T04:00:17;27.95;;;7.25;;
46084;SDS011;31823;47.032;8.310;2023-12-04T04:02:43;20.10;;;7.15;;
46084;SDS011;31823;47.032;8.310;2023-12-04T04:05:09;29.40;;;9.45;;
46084;SDS011;31823;47.032;8.310;2023-12-04T04:07:34;20.13;;;8.27;;
46084;SDS011;31823;47.032;8.310;2023-12-04T04:10:00;23.15;;;8.45;;
46084;SDS011;31823;47.032;8.310;2023-12-04T04:12:27;19.48;;;8.07;;
46084;SDS011;31823;47.032;8.310;2023-12-04T04:14:53;25.17;;;9.45;;
46084;SDS011;31823;47.032;8.310;2023-12-04T04:17:18;23.23;;;8.43;;
46084;SDS011;31823;47.032;8.310;2023-12-04T04:19:44;25.13;;;8.38;;
46084;SDS011;31823;47.032;8.310;2023-12-04T04:22:09;18.00;;;8.45;;
46084;SDS011;31823;47.032;8.310;2023-12-04T04:24:35;22.50;;;7.88;;
46084;SDS011;31823;47.032;8.310;2023-12-04T04:27:01;16.95;;;7.85;;
46084;SDS011;31823;47.032;8.310;2023-12-04T04:29:27;19.92;;;6.70;;
46084;SDS011;31823;47.032;8.310;2023-12-04T04:31:52;15.82;;;6.45;;
46084;SDS011;31823;47.032;8.310;2023-12-04T04:34:19;13.45;;;6.38;;
46084;SDS011;31823;47.032;8.310;2023-12-04T04:36:45;10.43;;;5.32;;
46084;SDS011;31823;47.032;8.310;2023-12-04T04:39:11;13.95;;;5.28;;
46084;SDS011;31823;47.032;8.310;2023-12-04T04:41:38;11.52;;;4.93;;
46084;SDS011;31823;47.032;8.310;2023-12-04T04:44:04;11.02;;;4.65;;
46084;SDS011;31823;47.032;8.310;2023-12-04T04:46:30;14.77;;;4.30;;
46084;SDS011;31823;47.032;8.310;2023-12-04T04:48:56;15.85;;;6.30;;
46084;SDS011;31823;47.032;8.310;2023-12-04T04:51:22;13.40;;;5.65;;
46084;SDS011;31823;47.032;8.310;2023-12-04T04:53:47;13.55;;;6.13;;
46084;SDS011;31823;47.032;8.310;2023-12-04T04:56:13;12.93;;;5.45;;
46084;SDS011;31823;47.032;8.310;2023-12-04T04:58:39;8.90;;;5.25;;
46084;SDS011;31823;47.032;8.310;2023-12-04T05:01:05;15.15;;;5.75;;
46084;SDS011;31823;47.032;8.310;2023-12-04T05:03:31;11.20;;;5.20;;
46084;SDS011;31823;47.032;8.310;2023-12-04T05:05:57;11.98;;;5.85;;
46084;SDS011;31823;47.032;8.310;2023-12-04T05:08:22;13.80;;;6.38;;
46084;SDS011;31823;47.032;8.310;2023-12-04T05:10:48;19.05;;;6.55;;
46084;SDS011;31823;47.032;8.310;2023-12-04T05:13:14;20.08;;;8.00;;
46084;SDS011;31823;47.032;8.310;2023-12-04T05:15:39;23.60;;;6.85;;
46084;SDS011;31823;47.032;8.310;2023-12-04T05:18:05;25.25;;;7.72;;
46084;SDS011;31823;47.032;8.310;2023-12-04T05:20:30;25.50;;;8.07;;
46084;SDS011;31823;47.032;8.310;2023-12-04T05:22:56;21.80;;;8.50;;
46084;SDS011;31823;47.032;8.310;2023-12-04T05:25:22;30.00;;;7.43;;
46084;SDS011;31823;47.032;8.310;2023-12-04T05:27:48;27.73;;;9.73;;
46084;SDS011;31823;47.032;8.310;2023-12-04T05:30:13;30.77;;;9.02;;
46084;SDS011;31823;47.032;8.310;2023-12-04T05:32:39;24.33;;;9.52;;
46084;SDS011;31823;47.032;8.310;2023-12-04T05:35:05;29.58;;;8.55;;
46084;SDS011;31823;47.032;8.310;2023-12-04T05:37:31;23.33;;;7.97;;
46084;SDS011;31823;47.032;8.310;2023-12-04T05:40:03;39.00;;;10.50;;
46084;SDS011;31823;47.032;8.310;2023-12-04T05:42:33;33.28;;;10.85;;
46084;SDS011;31823;47.032;8.310;2023-12-04T05:45:02;31.15;;;9.80;;
46084;SDS011;31823;47.032;8.310;2023-12-04T05:47:28;22.85;;;8.98;;
46084;SDS011;31823;47.032;8.310;2023-12-04T05:49:54;28.27;;;9.80;;
46084;SDS011;31823;47.032;8.310;2023-12-04T05:52:20;25.63;;;8.90;;
46084;SDS011;31823;47.032;8.310;2023-12-04T05:54:45;22.45;;;8.05;;
46084;SDS011;31823;47.032;8.310;2023-12-04T05:57:11;19.85;;;8.07;;
46084;SDS011;31823;47.032;8.310;2023-12-04T05:59:37;13.00;;;6.82;;
46084;SDS011;31823;47.032;8.310;2023-12-04T06:02:03;16.55;;;7.65;;
46084;SDS011;31823;47.032;8.310;2023-12-04T06:04:28;16.00;;;6.80;;
46084;SDS011;31823;47.032;8.310;2023-12-04T06:06:54;19.95;;;9.18;;
46084;SDS011;31823;47.032;8.310;2023-12-04T06:09:20;25.00;;;8.95;;
46084;SDS011;31823;47.032;8.310;2023-12-04T06:11:45;17.10;;;6.97;;
46084;SDS011;31823;47.032;8.310;2023-12-04T06:14:11;23.25;;;7.28;;
46084;SDS011;31823;47.032;8.310;2023-12-04T06:16:37;25.05;;;7.28;;
46084;SDS011;31823;47.032;8.310;2023-12-04T06:19:02;20.80;;;8.40;;
46084;SDS011;31823;47.032;8.310;2023-12-04T06:21:29;22.58;;;7.68;;
46084;SDS011;31823;47.032;8.310;2023-12-04T06:23:55;26.77;;;9.10;;
46084;SDS011;31823;47.032;8.310;2023-12-04T06:26:21;22.75;;;6.78;;
46084;SDS011;31823;47.032;8.310;2023-12-04T06:28:48;23.52;;;6.82;;
46084;SDS011;31823;47.032;8.310;2023-12-04T06:31:14;22.40;;;7.75;;
46084;SDS011;31823;47.032;8.310;2023-12-04T06:33:40;17.95;;;5.90;;
46084;SDS011;31823;47.032;8.310;2023-12-04T06:36:06;16.00;;;5.95;;
46084;SDS011;31823;47.032;8.310;2023-12-04T06:38:32;19.13;;;6.25;;
46084;SDS011;31823;47.032;8.310;2023-12-04T06:41:00;20.73;;;8.68;;
46084;SDS011;31823;47.032;8.310;2023-12-04T06:43:26;20.58;;;7.13;;
46084;SDS011;31823;47.032;8.310;2023-12-04T06:45:53;23.38;;;7.18;;
46084;SDS011;31823;47.032;8.310;2023-12-04T06:48:22;16.08;;;6.68;;
46084;SDS011;31823;47.032;8.310;2023-12-04T06:50:47;16.75;;;7.13;;
46084;SDS011;31823;47.032;8.310;2023-12-04T06:53:13;16.85;;;7.63;;
46084;SDS011;31823;47.032;8.310;2023-12-04T06:55:39;15.40;;;5.95;;
46084;SDS011;31823;47.032;8.310;2023-12-04T06:58:04;18.60;;;6.95;;
46084;SDS011;31823;47.032;8.310;2023-12-04T07:00:30;23.38;;;6.82;;
46084;SDS011;31823;47.032;8.310;2023-12-04T07:02:56;21.67;;;7.13;;
46084;SDS011;31823;47.032;8.310;2023-12-04T07:05:21;27.85;;;8.95;;
46084;SDS011;31823;47.032;8.310;2023-12-04T07:07:47;19.77;;;7.68;;
46084;SDS011;31823;47.032;8.310;2023-12-04T07:10:12;24.63;;;10.07;;
46084;SDS011;31823;47.032;8.310;2023-12-04T07:12:40;31.85;;;9.98;;
46084;SDS011;31823;47.032;8.310;2023-12-04T07:15:07;27.45;;;9.68;;
46084;SDS011;31823;47.032;8.310;2023-12-04T07:17:33;39.13;;;10.55;;
46084;SDS011;31823;47.032;8.310;2023-12-04T07:19:59;26.60;;;9.60;;
46084;SDS011;31823;47.032;8.310;2023-12-04T07:22:24;25.63;;;11.48;;
46084;SDS011;31823;47.032;8.310;2023-12-04T07:24:50;49.95;;;10.93;;
46084;SDS011;31823;47.032;8.310;2023-12-04T07:27:16;26.20;;;9.55;;
46084;SDS011;31823;47.032;8.310;2023-12-04T07:29:41;37.30;;;10.23;;
46084;SDS011;31823;47.032;8.310;2023-12-04T07:32:07;36.35;;;10.48;;
46084;SDS011;31823;47.032;8.310;2023-12-04T07:34:33;26.63;;;9.35;;
46084;SDS011;31823;47.032;8.310;2023-12-04T07:36:58;24.13;;;10.85;;
46084;SDS011;31823;47.032;8.310;2023-12-04T07:39:24;27.88;;;8.73;;
46084;SDS011;31823;47.032;8.310;2023-12-04T07:41:49;24.30;;;8.98;;
46084;SDS011;31823;47.032;8.310;2023-12-04T07:44:15;32.15;;;9.95;;
46084;SDS011;31823;47.032;8.310;2023-12-04T07:46:41;30.10;;;10.65;;
46084;SDS011;31823;47.032;8.310;2023-12-04T07:49:06;30.30;;;10.30;;
46084;SDS011;31823;47.032;8.310;2023-12-04T07:51:32;47.85;;;11.88;;
46084;SDS011;31823;47.032;8.310;2023-12-04T07:53:58;33.88;;;9.77;;
46084;SDS011;31823;47.032;8.310;2023-12-04T07:56:24;27.10;;;10.05;;
46084;SDS011;31823;47.032;8.310;2023-12-04T07:58:49;31.98;;;9.25;;
46084;SDS011;31823;47.032;8.310;2023-12-04T08:01:16;39.08;;;11.98;;
46084;SDS011;31823;47.032;8.310;2023-12-04T08:03:41;46.92;;;13.95;;
46084;SDS011;31823;47.032;8.310;2023-12-04T08:06:07;35.78;;;11.82;;
46084;SDS011;31823;47.032;8.310;2023-12-04T08:08:33;35.65;;;13.77;;
46084;SDS011;31823;47.032;8.310;2023-12-04T08:10:59;47.92;;;13.23;;
46084;SDS011;31823;47.032;8.310;2023-12-04T08:13:24;33.00;;;14.40;;
46084;SDS011;31823;47.032;8.310;2023-12-04T08:15:50;34.50;;;12.95;;
46084;SDS011;31823;47.032;8.310;2023-12-04T08:18:16;41.00;;;14.18;;
46084;SDS011;31823;47.032;8.310;2023-12-04T08:20:41;37.58;;;14.05;;
46084;SDS011;31823;47.032;8.310;2023-12-04T08:23:07;37.38;;;13.65;;
46084;SDS011;31823;47.032;8.310;2023-12-04T08:25:33;44.45;;;12.07;;
46084;SDS011;31823;47.032;8.310;2023-12-04T08:28:01;41.80;;;12.23;;
46084;SDS011;31823;47.032;8.310;2023-12-04T08:30:27;32.83;;;11.43;;
46084;SDS011;31823;47.032;8.310;2023-12-04T08:32:53;44.28;;;12.95;;
46084;SDS011;31823;47.032;8.310;2023-12-04T08:35:18;34.97;;;13.30;;
46084;SDS011;31823;47.032;8.310;2023-12-04T08:37:44;34.50;;;11.75;;
46084;SDS011;31823;47.032;8.310;2023-12-04T08:40:10;25.55;;;9.45;;
46084;SDS011;31823;47.032;8.310;2023-12-04T08:42:37;32.55;;;10.77;;
46084;SDS011;31823;47.032;8.310;2023-12-04T08:45:03;37.33;;;10.85;;
46084;SDS011;31823;47.032;8.310;2023-12-04T08:47:30;31.75;;;10.60;;
46084;SDS011;31823;47.032;8.310;2023-12-04T08:49:56;28.08;;;9.65;;
46084;SDS011;31823;47.032;8.310;2023-12-04T08:52:22;26.88;;;10.50;;
46084;SDS011;31823;47.032;8.310;2023-12-04T08:54:47;23.33;;;9.57;;
46084;SDS011;31823;47.032;8.310;2023-12-04T08:57:13;32.33;;;11.02;;
46084;SDS011;31823;47.032;8.310;2023-12-04T08:59:39;31.55;;;9.88;;
46084;SDS011;31823;47.032;8.310;2023-12-04T09:02:05;32.53;;;11.20;;
46084;SDS011;31823;47.032;8.310;2023-12-04T09:04:31;33.25;;;11.27;;
46084;SDS011;31823;47.032;8.310;2023-12-04T09:06:57;27.15;;;10.65;;
46084;SDS011;31823;47.032;8.310;2023-12-04T09:09:23;41.60;;;11.38;;
46084;SDS011;31823;47.032;8.310;2023-12-04T09:11:48;43.60;;;14.98;;
46084;SDS011;31823;47.032;8.310;2023-12-04T09:14:14;43.47;;;13.48;;
46084;SDS011;31823;47.032;8.310;2023-12-04T09:16:40;38.03;;;13.25;;
46084;SDS011;31823;47.032;8.310;2023-12-04T09:19:06;40.72;;;12.40;;
46084;SDS011;31823;47.032;8.310;2023-12-04T09:21:32;42.47;;;11.70;;
46084;SDS011;31823;47.032;8.310;2023-12-04T09:23:58;37.75;;;12.27;;
46084;SDS011;31823;47.032;8.310;2023-12-04T09:26:23;40.75;;;14.30;;
46084;SDS011;31823;47.032;8.310;2023-12-04T09:28:49;35.95;;;13.25;;
46084;SDS011;31823;47.032;8.310;2023-12-04T09:31:14;37.00;;;12.98;;
46084;SDS011;31823;47.032;8.310;2023-12-04T09:33:40;43.35;;;14.48;;
46084;SDS011;31823;47.032;8.310;2023-12-04T09:36:06;40.55;;;14.75;;
46084;SDS011;31823;47.032;8.310;2023-12-04T09:38:32;43.65;;;14.05;;
46084;SDS011;31823;47.032;8.310;2023-12-04T09:40:58;37.13;;;13.20;;
46084;SDS011;31823;47.032;8.310;2023-12-04T09:43:26;35.92;;;11.68;;
46084;SDS011;31823;47.032;8.310;2023-12-04T09:45:54;37.15;;;11.82;;
46084;SDS011;31823;47.032;8.310;2023-12-04T09:48:20;35.60;;;11.25;;
46084;SDS011;31823;47.032;8.310;2023-12-04T09:50:47;37.38;;;12.73;;
46084;SDS011;31823;47.032;8.310;2023-12-04T09:53:13;41.83;;;11.73;;
46084;SDS011;31823;47.032;8.310;2023-12-04T09:55:38;32.42;;;10.48;;
46084;SDS011;31823;47.032;8.310;2023-12-04T09:58:05;31.00;;;9.52;;
46084;SDS011;31823;47.032;8.310;2023-12-04T10:00:31;33.38;;;11.68;;
46084;SDS011;31823;47.032;8.310;2023-12-04T10:02:57;37.33;;;11.43;;
46084;SDS011;31823;47.032;8.310;2023-12-04T10:05:24;31.40;;;11.57;;
46084;SDS011;31823;47.032;8.310;2023-12-04T10:07:50;33.38;;;12.82;;
46084;SDS011;31823;47.032;8.310;2023-12-04T10:10:15;29.20;;;12.75;;
46084;SDS011;31823;47.032;8.310;2023-12-04T10:12:42;30.38;;;10.85;;
46084;SDS011;31823;47.032;8.310;2023-12-04T10:17:36;27.20;;;10.77;;
46084;SDS011;31823;47.032;8.310;2023-12-04T10:20:04;31.33;;;10.32;;
46084;SDS011;31823;47.032;8.310;2023-12-04T10:22:55;31.60;;;11.13;;
46084;SDS011;31823;47.032;8.310;2023-12-04T10:25:23;35.75;;;11.60;;
46084;SDS011;31823;47.032;8.310;2023-12-04T10:27:50;26.08;;;10.13;;
46084;SDS011;31823;47.032;8.310;2023-12-04T10:30:27;29.30;;;9.93;;
46084;SDS011;31823;47.032;8.310;2023-12-04T10:33:01;27.63;;;10.25;;
46084;SDS011;31823;47.032;8.310;2023-12-04T10:35:30;35.90;;;10.20;;
46084;SDS011;31823;47.032;8.310;2023-12-04T10:37:57;24.38;;;10.00;;
46084;SDS011;31823;47.032;8.310;2023-12-04T10:40:31;25.95;;;10.65;;
46084;SDS011;31823;47.032;8.310;2023-12-04T10:43:31;25.23;;;10.13;;
46084;SDS011;31823;47.032;8.310;2023-12-04T10:45:50;34.75;;;12.75;;
46084;SDS011;31823;47.032;8.310;2023-12-04T10:48:17;28.63;;;9.65;;
46084;SDS011;31823;47.032;8.310;2023-12-04T10:50:44;30.63;;;11.32;;
46084;SDS011;31823;47.032;8.310;2023-12-04T10:53:12;34.88;;;12.00;;
46084;SDS011;31823;47.032;8.310;2023-12-04T10:55:39;41.38;;;12.73;;
46084;SDS011;31823;47.032;8.310;2023-12-04T10:58:06;42.08;;;13.10;;
46084;SDS011;31823;47.032;8.310;2023-12-04T11:00:38;41.20;;;14.27;;
46084;SDS011;31823;47.032;8.310;2023-12-04T11:03:08;44.53;;;14.52;;
46084;SDS011;31823;47.032;8.310;2023-12-04T11:05:39;35.47;;;13.23;;
46084;SDS011;31823;47.032;8.310;2023-12-04T11:08:06;38.95;;;13.13;;
46084;SDS011;31823;47.032;8.310;2023-12-04T11:10:39;44.35;;;13.95;;
46084;SDS011;31823;47.032;8.310;2023-12-04T11:13:17;44.75;;;14.38;;
46084;SDS011;31823;47.032;8.310;2023-12-04T11:15:54;36.33;;;13.35;;
46084;SDS011;31823;47.032;8.310;2023-12-04T11:18:25;39.38;;;14.45;;
46084;SDS011;31823;47.032;8.310;2023-12-04T11:20:59;34.60;;;13.05;;
46084;SDS011;31823;47.032;8.310;2023-12-04T11:23:31;41.40;;;14.00;;
46084;SDS011;31823;47.032;8.310;2023-12-04T11:25:57;39.95;;;13.50;;
46084;SDS011;31823;47.032;8.310;2023-12-04T11:28:24;37.58;;;11.90;;
46084;SDS011;31823;47.032;8.310;2023-12-04T11:30:50;38.05;;;14.18;;
46084;SDS011;31823;47.032;8.310;2023-12-04T11:33:18;44.65;;;13.07;;
46084;SDS011;31823;47.032;8.310;2023-12-04T11:35:44;38.38;;;12.82;;
46084;SDS011;31823;47.032;8.310;2023-12-04T11:38:13;33.42;;;12.50;;
46084;SDS011;31823;47.032;8.310;2023-12-04T11:40:40;40.42;;;13.45;;
46084;SDS011;31823;47.032;8.310;2023-12-04T11:43:26;29.13;;;11.77;;
46084;SDS011;31823;47.032;8.310;2023-12-04T11:46:06;34.30;;;10.70;;
46084;SDS011;31823;47.032;8.310;2023-12-04T11:48:38;30.38;;;10.60;;
46084;SDS011;31823;47.032;8.310;2023-12-04T11:51:07;33.50;;;11.48;;
46084;SDS011;31823;47.032;8.310;2023-12-04T11:53:39;36.55;;;11.77;;
46084;SDS011;31823;47.032;8.310;2023-12-04T11:56:09;33.08;;;13.10;;
46084;SDS011;31823;47.032;8.310;2023-12-04T11:58:41;28.27;;;11.00;;
46084;SDS011;31823;47.032;8.310;2023-12-04T12:01:08;27.25;;;11.27;;
46084;SDS011;31823;47.032;8.310;2023-12-04T12:03:33;28.63;;;10.68;;
46084;SDS011;31823;47.032;8.310;2023-12-04T12:05:59;32.55;;;11.70;;
46084;SDS011;31823;47.032;8.310;2023-12-04T12:08:25;35.13;;;12.52;;
46084;SDS011;31823;47.032;8.310;2023-12-04T12:10:54;31.13;;;11.50;;
46084;SDS011;31823;47.032;8.310;2023-12-04T12:13:20;44.33;;;13.20;;
46084;SDS011;31823;47.032;8.310;2023-12-04T12:15:47;35.88;;;12.43;;
46084;SDS011;31823;47.032;8.310;2023-12-04T12:18:15;30.65;;;10.93;;
46084;SDS011;31823;47.032;8.310;2023-12-04T12:20:41;32.45;;;10.88;;
46084;SDS011;31823;47.032;8.310;2023-12-04T12:23:06;36.28;;;12.48;;
46084;SDS011;31823;47.032;8.310;2023-12-04T12:25:34;28.98;;;11.07;;
46084;SDS011;31823;47.032;8.310;2023-12-04T12:28:03;35.67;;;12.60;;
46084;SDS011;31823;47.032;8.310;2023-12-04T12:30:29;23.45;;;10.27;;
46084;SDS011;31823;47.032;8.310;2023-12-04T12:32:55;34.63;;;11.85;;
46084;SDS011;31823;47.032;8.310;2023-12-04T12:35:22;29.65;;;10.73;;
46084;SDS011;31823;47.032;8.310;2023-12-04T12:37:48;30.40;;;11.73;;
46084;SDS011;31823;47.032;8.310;2023-12-04T12:40:18;33.22;;;11.48;;
46084;SDS011;31823;47.032;8.310;2023-12-04T12:42:45;35.47;;;12.70;;
46084;SDS011;31823;47.032;8.310;2023-12-04T12:45:11;34.65;;;11.40;;
46084;SDS011;31823;47.032;8.310;2023-12-04T12:47:37;37.72;;;12.43;;
46084;SDS011;31823;47.032;8.310;2023-12-04T12:50:07;36.40;;;12.55;;
46084;SDS011;31823;47.032;8.310;2023-12-04T12:52:35;35.10;;;12.02;;
46084;SDS011;31823;47.032;8.310;2023-12-04T12:55:02;34.78;;;13.05;;
46084;SDS011;31823;47.032;8.310;2023-12-04T12:57:29;31.85;;;12.50;;
46084;SDS011;31823;47.032;8.310;2023-12-04T12:59:55;30.55;;;11.43;;
46084;SDS011;31823;47.032;8.310;2023-12-04T13:02:21;37.30;;;15.20;;
46084;SDS011;31823;47.032;8.310;2023-12-04T13:04:47;39.10;;;14.18;;
46084;SDS011;31823;47.032;8.310;2023-12-04T13:07:13;45.67;;;13.63;;
46084;SDS011;31823;47.032;8.310;2023-12-04T13:09:39;47.30;;;15.13;;
46084;SDS011;31823;47.032;8.310;2023-12-04T13:12:05;44.05;;;15.30;;
46084;SDS011;31823;47.032;8.310;2023-12-04T13:14:31;48.70;;;13.95;;
46084;SDS011;31823;47.032;8.310;2023-12-04T13:17:00;34.65;;;14.02;;
46084;SDS011;31823;47.032;8.310;2023-12-04T13:19:26;36.78;;;13.63;;
46084;SDS011;31823;47.032;8.310;2023-12-04T13:21:52;38.25;;;16.40;;
46084;SDS011;31823;47.032;8.310;2023-12-04T13:24:18;42.80;;;15.15;;
46084;SDS011;31823;47.032;8.310;2023-12-04T13:26:44;49.20;;;14.10;;
46084;SDS011;31823;47.032;8.310;2023-12-04T13:29:10;36.78;;;13.88;;
46084;SDS011;31823;47.032;8.310;2023-12-04T13:31:36;44.95;;;15.00;;
46084;SDS011;31823;47.032;8.310;2023-12-04T13:34:02;35.42;;;13.07;;
46084;SDS011;31823;47.032;8.310;2023-12-04T13:36:32;49.95;;;15.90;;
46084;SDS011;31823;47.032;8.310;2023-12-04T13:38:59;48.08;;;15.48;;
46084;SDS011;31823;47.032;8.310;2023-12-04T13:41:24;46.90;;;16.10;;
46084;SDS011;31823;47.032;8.310;2023-12-04T13:44:09;51.78;;;15.65;;
46084;SDS011;31823;47.032;8.310;2023-12-04T13:46:34;41.17;;;15.65;;
46084;SDS011;31823;47.032;8.310;2023-12-04T13:49:00;45.20;;;16.15;;
46084;SDS011;31823;47.032;8.310;2023-12-04T13:51:25;47.60;;;15.50;;
46084;SDS011;31823;47.032;8.310;2023-12-04T13:53:51;43.92;;;15.23;;
46084;SDS011;31823;47.032;8.310;2023-12-04T13:56:21;52.72;;;15.13;;
46084;SDS011;31823;47.032;8.310;2023-12-04T13:58:51;43.45;;;14.98;;
46084;SDS011;31823;47.032;8.310;2023-12-04T14:01:23;46.90;;;17.13;;
46084;SDS011;31823;47.032;8.310;2023-12-04T14:03:51;50.75;;;15.32;;
46084;SDS011;31823;47.032;8.310;2023-12-04T14:06:18;50.30;;;17.00;;
46084;SDS011;31823;47.032;8.310;2023-12-04T14:08:44;60.97;;;17.75;;
46084;SDS011;31823;47.032;8.310;2023-12-04T14:11:10;41.78;;;15.00;;
46084;SDS011;31823;47.032;8.310;2023-12-04T14:13:37;42.70;;;15.60;;
46084;SDS011;31823;47.032;8.310;2023-12-04T14:16:04;48.03;;;14.68;;
46084;SDS011;31823;47.032;8.310;2023-12-04T14:18:30;45.20;;;15.35;;
46084;SDS011;31823;47.032;8.310;2023-12-04T14:20:56;50.70;;;16.15;;
46084;SDS011;31823;47.032;8.310;2023-12-04T14:23:22;44.13;;;15.32;;
46084;SDS011;31823;47.032;8.310;2023-12-04T14:25:47;41.97;;;14.50;;
46084;SDS011;31823;47.032;8.310;2023-12-04T14:28:13;41.00;;;14.85;;